Time;durP1;ratioP1;P1;durP2;ratioP2;P2;SDS_P1;SDS_P2;PMS_P1;PMS_P2;Temp;Humidity;BMP_temperature;BMP_pressure;BME280_temperature;BME280_humidity;BME280_pressure;Samples;Min_cycle;Max_cycle;Signal;HPM_P1;HPM_P2
2023/10/22 00:00:47;;;;;;;7.65;2.60;;;;;;;-146.27;92.92;82904.50;5026192;28;20048;-69
2023/10/22 00:03:12;;;;;;;6.10;2.88;;;;;;;-146.27;93.03;82880.41;5020527;28;20091;-70
2023/10/22 00:05:38;;;;;;;5.40;2.88;;;;;;;-146.27;93.35;82916.56;5026144;28;20056;-70
2023/10/22 00:08:03;;;;;;;9.70;2.67;;;;;;;-146.27;92.52;82850.25;5028247;28;20033;-70
2023/10/22 00:10:29;;;;;;;10.95;3.03;;;;;;;-146.27;93.28;82914.53;5025714;28;20123;-71
2023/10/22 00:12:54;;;;;;;8.80;2.38;;;;;;;-146.27;92.37;82834.19;5018358;28;20088;-70
2023/10/22 00:15:24;;;;;;;6.32;2.38;;;;;;;-146.27;92.25;82848.25;5028915;28;20088;-70
2023/10/22 00:17:50;;;;;;;4.35;2.28;;;;;;;-146.27;92.18;82850.25;5020401;28;20033;-70
2023/10/22 00:20:15;;;;;;;11.77;2.85;;;;;;;-146.27;92.43;82846.25;5027372;28;20083;-69
2023/10/22 00:22:41;;;;;;;4.63;2.10;;;;;;;-146.27;92.66;82886.41;5024250;28;20025;-70
2023/10/22 00:25:07;;;;;;;3.75;2.55;;;;;;;-146.27;92.95;82886.41;5025740;28;20036;-69
2023/10/22 00:27:33;;;;;;;3.80;2.15;;;;;;;-146.27;92.79;82874.38;5025043;28;20022;-70
2023/10/22 00:29:59;;;;;;;5.13;2.42;;;;;;;-146.27;93.86;82960.75;5010455;28;20104;-71
2023/10/22 00:32:24;;;;;;;6.53;2.40;;;;;;;-146.27;93.76;82902.50;5023764;28;20056;-69
2023/10/22 00:34:50;;;;;;;6.20;2.33;;;;;;;-146.27;93.25;82878.38;5028875;28;20063;-71
2023/10/22 00:37:15;;;;;;;4.53;2.60;;;;;;;-146.27;93.66;82918.56;5032498;28;20022;-70
2023/10/22 00:39:41;;;;;;;3.08;1.90;;;;;;;-146.27;93.11;82886.41;5028542;28;20029;-69
2023/10/22 00:42:07;;;;;;;8.07;1.90;;;;;;;-146.27;93.96;82910.53;5027965;28;20119;-69
2023/10/22 00:44:32;;;;;;;6.05;2.22;;;;;;;-146.27;92.79;82856.28;5012131;28;20475;-69
2023/10/22 00:46:58;;;;;;;5.13;2.63;;;;;;;-146.27;93.00;82882.41;5022312;28;20405;-69
2023/10/22 00:49:24;;;;;;;7.40;3.10;;;;;;;-146.27;93.10;82866.31;5027287;28;20037;-69
2023/10/22 00:51:50;;;;;;;6.10;2.47;;;;;;;-146.27;92.78;82860.31;5029065;28;20037;-69
2023/10/22 00:54:17;;;;;;;4.63;2.53;;;;;;;-146.27;92.63;82794.00;5026691;28;20037;-69
2023/10/22 00:56:42;;;;;;;6.82;2.75;;;;;;;-146.27;92.58;82818.13;5021153;28;20037;-69
2023/10/22 00:59:10;;;;;;;3.95;2.25;;;;;;;-146.27;92.97;82834.19;5025504;28;20110;-74
2023/10/22 01:01:35;;;;;;;9.82;2.63;;;;;;;-146.27;93.03;82842.22;5018353;28;20029;-74
2023/10/22 01:04:01;;;;;;;4.63;2.65;;;;;;;-146.27;92.71;82810.06;5035270;28;20474;-74
2023/10/22 01:06:26;;;;;;;7.15;2.85;;;;;;;-146.27;93.06;82860.31;5018594;28;20052;-74
2023/10/22 01:08:54;;;;;;;12.88;2.60;;;;;;;-146.27;92.83;82838.19;5024078;28;20030;-74
2023/10/22 01:11:19;;;;;;;9.55;2.38;;;;;;;-146.27;93.32;82846.25;5013155;28;20034;-74
2023/10/22 01:13:45;;;;;;;8.40;2.17;;;;;;;-146.27;93.17;82822.13;5024581;28;20576;-72
2023/10/22 01:16:10;;;;;;;6.57;2.33;;;;;;;-146.27;93.33;82779.94;5021350;28;20117;-75
2023/10/22 01:18:36;;;;;;;5.88;2.53;;;;;;;-146.27;92.42;82745.78;5026685;28;20037;-74
2023/10/22 01:21:03;;;;;;;3.00;2.33;;;;;;;-146.27;92.81;82753.81;5021766;28;20033;-74
2023/10/22 01:23:29;;;;;;;5.90;3.00;;;;;;;-146.27;93.78;82765.88;5024775;28;20748;-74
2023/10/22 01:25:54;;;;;;;4.55;2.33;;;;;;;-146.27;92.82;82757.84;5032312;28;20056;-74
2023/10/22 01:28:19;;;;;;;6.75;2.58;;;;;;;-146.27;92.67;82729.72;5018916;28;20688;-74
2023/10/22 01:30:45;;;;;;;5.18;2.33;;;;;;;-146.27;92.21;82741.78;5015370;28;20022;-74
2023/10/22 01:33:10;;;;;;;2.30;1.85;;;;;;;-146.27;92.49;82749.81;5026331;28;20033;-74
2023/10/22 01:35:37;;;;;;;12.15;2.70;;;;;;;-146.27;92.48;82755.84;5018674;28;20032;-74
2023/10/22 01:38:02;;;;;;;3.33;1.70;;;;;;;-146.27;91.92;82677.47;5022993;28;20496;-74
2023/10/22 01:40:28;;;;;;;6.90;2.10;;;;;;;-146.27;91.91;82711.63;5026938;28;20038;-74
2023/10/22 01:42:53;;;;;;;3.03;1.85;;;;;;;-146.27;91.88;82685.50;5022238;28;20026;-74
2023/10/22 01:45:20;;;;;;;6.93;2.03;;;;;;;-146.27;92.20;82715.66;5010972;28;20041;-74
2023/10/22 01:47:45;;;;;;;7.68;2.10;;;;;;;-146.27;92.83;82697.56;5031950;28;20104;-74
2023/10/22 01:50:12;;;;;;;6.90;1.95;;;;;;;-146.27;92.50;82621.22;5038930;28;20097;-74
2023/10/22 01:52:37;;;;;;;4.30;1.80;;;;;;;-146.27;93.75;82761.84;5022811;28;20029;-74
2023/10/22 01:55:03;;;;;;;4.07;1.48;;;;;;;-146.27;94.16;82705.59;5029453;28;20040;-73
2023/10/22 01:57:28;;;;;;;8.40;1.20;;;;;;;-146.27;94.19;82705.59;5018821;28;20055;-74
2023/10/22 01:59:53;;;;;;;3.15;1.27;;;;;;;-146.27;95.00;82783.97;5018771;28;20025;-73
2023/10/22 02:02:19;;;;;;;9.05;1.45;;;;;;;-146.27;95.25;82761.84;5020478;28;20049;-73
2023/10/22 02:04:44;;;;;;;8.88;1.30;;;;;;;-146.27;94.56;82757.84;5043570;28;20087;-74
2023/10/22 02:07:11;;;;;;;9.32;1.48;;;;;;;-146.27;94.09;82777.94;5026114;28;20021;-74
2023/10/22 02:09:37;;;;;;;6.78;1.30;;;;;;;-146.27;93.73;82753.81;5038994;28;20104;-69
2023/10/22 02:12:02;;;;;;;6.25;1.08;;;;;;;-146.27;93.36;82757.84;5033624;28;20109;-68
2023/10/22 02:14:27;;;;;;;8.77;1.38;;;;;;;-146.27;93.12;82763.88;5031252;28;20025;-69
2023/10/22 02:16:53;;;;;;;6.57;1.60;;;;;;;-146.27;93.42;82789.97;5034036;28;20460;-70
2023/10/22 02:19:18;;;;;;;10.57;1.45;;;;;;;-146.27;93.63;82814.09;5014843;28;20428;-69
2023/10/22 02:21:45;;;;;;;9.38;2.10;;;;;;;-146.27;93.31;82781.94;5027417;28;20060;-68
2023/10/22 02:24:10;;;;;;;10.40;1.25;;;;;;;-146.27;93.36;82812.09;5022060;28;20684;-69
2023/10/22 02:26:36;;;;;;;6.43;1.13;;;;;;;-146.27;92.38;82802.03;5030333;28;20100;-68
2023/10/22 02:29:01;;;;;;;9.02;1.50;;;;;;;-146.27;93.63;82874.38;5039874;28;20048;-68
2023/10/22 02:31:26;;;;;;;5.72;1.48;;;;;;;-146.27;94.23;82886.41;5046527;28;20029;-69
2023/10/22 02:34:05;;;;;;;10.77;1.90;;;;;;;-146.27;93.25;82785.97;5033341;28;20037;-69
2023/10/22 02:36:31;;;;;;;7.60;1.85;;;;;;;-146.27;93.38;82844.22;5032557;28;20450;-68
2023/10/22 02:38:56;;;;;;;10.05;1.98;;;;;;;-146.27;92.55;82806.06;5031635;28;20112;-69
2023/10/22 02:41:22;;;;;;;10.10;1.95;;;;;;;-146.27;92.24;82806.06;5028693;28;20879;-70
2023/10/22 02:43:47;;;;;;;8.35;3.08;;;;;;;-146.27;93.33;82906.50;5019152;28;20030;-68
2023/10/22 02:46:15;;;;;;;12.57;3.67;;;;;;;-146.27;93.00;82870.34;5031123;28;20474;-68
2023/10/22 02:48:40;;;;;;;11.40;4.13;;;;;;;-146.27;92.45;82862.31;5035536;28;20025;-68
2023/10/22 02:51:06;;;;;;;10.85;4.43;;;;;;;-146.27;92.16;82938.66;5047194;28;20108;-67
2023/10/22 02:53:31;;;;;;;12.35;3.83;;;;;;;-146.27;92.57;82914.53;5034490;28;20484;-68
2023/10/22 02:56:01;;;;;;;9.10;4.07;;;;;;;-146.27;92.26;82916.56;5029769;28;20083;-68
2023/10/22 02:58:28;;;;;;;13.35;3.63;;;;;;;-146.27;91.69;82916.56;5039136;28;20037;-69
2023/10/22 03:00:55;;;;;;;9.18;3.63;;;;;;;-146.27;91.53;82970.81;5032309;28;20030;-69
2023/10/22 03:03:21;;;;;;;7.40;3.15;;;;;;;-146.27;90.91;82962.75;5027387;28;20488;-69
2023/10/22 03:05:46;;;;;;;6.03;2.28;;;;;;;-146.27;90.42;83023.03;5027313;28;20030;-68
2023/10/22 03:08:11;;;;;;;4.35;2.22;;;;;;;-146.27;90.15;83033.09;5027650;28;20021;-68
2023/10/22 03:10:37;;;;;;;9.60;2.20;;;;;;;-146.27;89.88;82980.84;5039345;28;20537;-68
2023/10/22 03:13:02;;;;;;;11.00;2.10;;;;;;;-146.27;89.24;82998.94;5026580;28;20034;-69
2023/10/22 03:15:28;;;;;;;11.65;2.80;;;;;;;-146.27;89.83;83055.19;5029099;28;20092;-68
2023/10/22 03:17:54;;;;;;;10.80;2.33;;;;;;;-146.27;90.04;83035.09;5026082;28;20382;-69
2023/10/22 03:20:19;;;;;;;7.93;1.90;;;;;;;-146.27;89.98;83073.25;5041479;28;20358;-73
2023/10/22 03:22:44;;;;;;;4.72;1.83;;;;;;;-146.27;89.38;82966.78;5037988;28;20021;-73
2023/10/22 03:25:10;;;;;;;5.78;1.45;;;;;;;-146.27;90.24;83059.19;5032456;28;20029;-73
2023/10/22 03:27:35;;;;;;;7.63;2.08;;;;;;;-146.27;89.96;83008.97;5022386;28;20039;-73
2023/10/22 03:30:03;;;;;;;7.38;1.48;;;;;;;-146.27;90.18;83039.09;5048616;28;20055;-73
2023/10/22 03:32:28;;;;;;;10.70;1.83;;;;;;;-146.27;89.72;83013.00;5041216;28;20033;-73
2023/10/22 03:34:54;;;;;;;5.53;1.40;;;;;;;-146.27;89.37;82996.91;5039055;28;20080;-74
2023/10/22 03:37:19;;;;;;;6.22;1.20;;;;;;;-146.27;89.29;83004.94;5036597;28;20461;-73
2023/10/22 03:39:44;;;;;;;5.60;1.23;;;;;;;-146.27;89.24;83002.94;5039531;28;20558;-74
2023/10/22 03:42:10;;;;;;;8.07;1.65;;;;;;;-146.27;88.98;83025.03;5039473;28;20111;-74
2023/10/22 03:44:35;;;;;;;5.15;1.13;;;;;;;-146.27;89.00;83031.06;5034223;28;20036;-74
2023/10/22 03:47:00;;;;;;;2.88;1.40;;;;;;;-146.27;88.62;83039.09;5038508;28;20022;-74
2023/10/22 03:49:26;;;;;;;4.72;1.17;;;;;;;-146.27;88.57;82978.84;5031410;28;20033;-74
2023/10/22 03:51:51;;;;;;;3.38;1.08;;;;;;;-146.27;88.21;83006.97;5013842;28;20025;-74
2023/10/22 03:54:16;;;;;;;2.90;1.48;;;;;;;-146.27;88.02;82956.75;5021715;28;20044;-74
2023/10/22 03:56:42;;;;;;;7.57;1.80;;;;;;;-146.27;87.83;82970.81;5030025;28;20037;-74
2023/10/22 03:59:07;;;;;;;3.88;1.17;;;;;;;-146.27;87.92;82968.78;5031011;28;20037;-74
2023/10/22 04:01:32;;;;;;;10.25;1.75;;;;;;;-146.27;87.93;82982.84;5031485;28;20041;-73
2023/10/22 04:03:58;;;;;;;2.78;1.10;;;;;;;-146.27;87.82;82986.88;5031154;28;20980;-73
2023/10/22 04:06:23;;;;;;;9.32;1.20;;;;;;;-146.27;87.60;82954.72;5026128;28;20390;-74
2023/10/22 04:08:48;;;;;;;4.30;1.15;;;;;;;-146.27;87.62;82972.81;5015851;28;20021;-73
2023/10/22 04:11:17;;;;;;;4.68;1.40;;;;;;;-146.27;87.82;82962.75;5019583;28;20033;-73
2023/10/22 04:13:43;;;;;;;6.68;1.50;;;;;;;-146.27;87.93;83027.06;5017906;28;20036;-73
2023/10/22 04:16:16;;;;;;;3.70;1.25;;;;;;;-146.27;87.94;82986.88;5016236;28;20058;-73
2023/10/22 04:18:42;;;;;;;8.50;1.52;;;;;;;-146.27;87.89;82990.88;5022790;28;20104;-73
2023/10/22 04:21:14;;;;;;;3.08;1.40;;;;;;;-146.27;88.08;82974.81;5017291;28;20103;-73
2023/10/22 04:23:39;;;;;;;6.07;1.25;;;;;;;-146.27;87.94;82970.81;5029174;28;20021;-73
2023/10/22 04:26:10;;;;;;;7.47;1.45;;;;;;;-146.27;88.02;83006.97;5025588;28;20363;-73
2023/10/22 04:28:35;;;;;;;11.93;1.80;;;;;;;-146.27;87.81;82982.84;5026680;28;20030;-75
2023/10/22 04:31:01;;;;;;;9.32;1.23;;;;;;;-146.27;87.47;82982.84;5022847;28;20150;-73
2023/10/22 04:33:26;;;;;;;4.55;1.23;;;;;;;-146.27;87.56;82974.81;5019580;28;20029;-73
2023/10/22 04:35:52;;;;;;;5.15;1.08;;;;;;;-146.27;87.26;83015.00;5025360;28;20035;-72
2023/10/22 04:38:17;;;;;;;7.35;1.58;;;;;;;-146.27;87.08;82930.63;5028330;28;20128;-73
2023/10/22 04:40:42;;;;;;;2.03;0.82;;;;;;;-146.27;86.86;82940.66;5025902;28;20386;-73
2023/10/22 04:43:08;;;;;;;9.00;1.58;;;;;;;-146.27;85.82;83015.00;5027378;28;20481;-73
2023/10/22 04:45:33;;;;;;;6.57;1.13;;;;;;;-146.27;84.80;82960.75;5024246;28;20649;-73
2023/10/22 04:47:58;;;;;;;6.57;0.95;;;;;;;-146.27;84.84;82930.63;5015808;28;20041;-73
2023/10/22 04:50:24;;;;;;;8.50;1.10;;;;;;;-146.27;83.63;82954.72;5026813;28;20497;-73
2023/10/22 04:52:51;;;;;;;2.80;0.60;;;;;;;-146.27;83.36;83033.09;5041647;28;20025;-73
2023/10/22 04:55:16;;;;;;;5.35;0.80;;;;;;;-146.27;83.03;82946.69;5029495;28;20503;-73
2023/10/22 04:57:42;;;;;;;6.00;1.27;;;;;;;-146.27;83.26;82918.56;5016677;28;20034;-73
2023/10/22 05:00:09;;;;;;;5.22;1.10;;;;;;;-146.27;82.59;82902.50;5031183;28;20460;-73
2023/10/22 05:02:36;;;;;;;9.48;1.00;;;;;;;-146.27;82.30;82936.66;5025041;28;20075;-74
2023/10/22 05:05:01;;;;;;;9.13;0.82;;;;;;;-146.27;82.13;82950.72;5017247;28;20389;-74
2023/10/22 05:07:27;;;;;;;7.43;0.70;;;;;;;-146.27;82.44;82930.63;5025146;28;20026;-73
2023/10/22 05:09:52;;;;;;;6.55;0.90;;;;;;;-146.27;83.12;82922.59;5009917;28;20079;-73
2023/10/22 05:12:17;;;;;;;4.82;0.95;;;;;;;-146.27;82.77;82920.56;5025526;28;20021;-74
2023/10/22 05:14:43;;;;;;;6.90;0.80;;;;;;;-146.27;82.48;82918.56;5021092;28;20496;-73
2023/10/22 05:17:08;;;;;;;2.25;0.80;;;;;;;-146.27;81.85;82970.81;5021172;28;20401;-74
2023/10/22 05:19:34;;;;;;;8.85;1.20;;;;;;;-146.27;82.20;82930.63;5016241;28;20026;-73
2023/10/22 05:22:00;;;;;;;4.43;0.90;;;;;;;-146.27;81.05;82954.72;5016348;28;20033;-73
2023/10/22 05:24:26;;;;;;;3.05;0.90;;;;;;;-146.27;81.87;82934.63;5023390;28;20464;-73
2023/10/22 05:26:51;;;;;;;3.08;0.63;;;;;;;-146.27;82.10;82926.59;5042538;28;20055;-73
2023/10/22 05:29:17;;;;;;;1.55;1.15;;;;;;;-146.27;82.15;82926.59;5023583;28;20033;-74
2023/10/22 05:31:42;;;;;;;5.22;0.80;;;;;;;-146.27;81.20;82946.69;5026560;28;20374;-74
2023/10/22 05:34:08;;;;;;;4.15;0.63;;;;;;;-146.27;81.29;82926.59;5041005;28;20075;-73
2023/10/22 05:36:34;;;;;;;4.40;0.93;;;;;;;-146.27;80.83;82930.63;5040305;28;20532;-75
2023/10/22 05:39:00;;;;;;;4.03;0.70;;;;;;;-146.27;81.08;82916.56;5034100;28;20029;-73
2023/10/22 05:41:27;;;;;;;3.20;0.65;;;;;;;-146.27;81.29;82906.50;5017264;28;20025;-74
2023/10/22 05:44:01;;;;;;;1.98;0.65;;;;;;;-146.27;80.85;82924.59;5016095;28;20042;-73
2023/10/22 05:46:27;;;;;;;2.50;0.57;;;;;;;-146.27;81.02;82948.69;5021929;28;20025;-74
2023/10/22 05:48:53;;;;;;;7.80;0.75;;;;;;;-146.27;80.59;82954.72;5017065;28;20075;-73
2023/10/22 05:51:18;;;;;;;5.57;0.90;;;;;;;-146.27;80.50;82930.63;5030093;28;20132;-73
2023/10/22 05:53:47;;;;;;;5.45;1.08;;;;;;;-146.27;80.10;82946.69;5031045;28;20030;-73
2023/10/22 05:56:12;;;;;;;4.13;0.77;;;;;;;-146.27;80.60;82888.44;5016030;28;20095;-73
2023/10/22 05:58:39;;;;;;;5.40;0.80;;;;;;;-146.27;80.70;82906.50;5030337;28;20025;-73
2023/10/22 06:01:05;;;;;;;6.95;0.57;;;;;;;-146.27;80.41;82862.31;5044608;28;20035;-73
2023/10/22 06:03:30;;;;;;;6.35;1.00;;;;;;;-146.27;80.89;82910.53;5031531;28;20025;-73
2023/10/22 06:05:56;;;;;;;4.88;1.05;;;;;;;-146.27;81.30;82870.34;5015558;28;20041;-73
2023/10/22 06:08:21;;;;;;;3.53;1.20;;;;;;;-146.27;81.87;82950.72;5036391;28;20021;-74
2023/10/22 06:10:46;;;;;;;7.18;1.50;;;;;;;-146.27;82.63;82958.75;5049680;28;20021;-73
2023/10/22 06:13:12;;;;;;;9.80;1.67;;;;;;;-146.27;83.17;82956.75;5038519;28;20051;-74
2023/10/22 06:15:43;;;;;;;3.25;1.25;;;;;;;-146.27;83.25;82934.63;5041710;28;20060;-75
2023/10/22 06:18:09;;;;;;;3.90;1.40;;;;;;;-146.27;83.66;82974.81;5024682;28;20709;-73
2023/10/22 06:20:35;;;;;;;5.47;1.50;;;;;;;-146.27;83.63;82962.75;5017527;28;20111;-74
2023/10/22 06:23:02;;;;;;;8.05;1.30;;;;;;;-146.27;83.83;82988.88;5025748;28;20105;-74
2023/10/22 06:25:27;;;;;;;3.45;1.88;;;;;;;-146.27;84.09;82962.75;5023342;28;20036;-73
2023/10/22 06:27:56;;;;;;;5.13;1.80;;;;;;;-146.27;84.53;82948.69;5035144;28;20100;-73
2023/10/22 06:30:23;;;;;;;14.02;2.85;;;;;;;-146.27;84.36;83015.00;5047726;28;20116;-72
2023/10/22 06:32:51;;;;;;;3.65;1.35;;;;;;;-146.27;84.94;83015.00;5026711;28;20055;-74
2023/10/22 06:35:16;;;;;;;8.88;2.70;;;;;;;-146.27;85.09;83025.03;5030112;28;20109;-74
2023/10/22 06:37:41;;;;;;;4.03;1.52;;;;;;;-146.27;85.26;83019.03;5032108;28;20136;-73
2023/10/22 06:40:08;;;;;;;7.82;1.88;;;;;;;-146.27;85.39;83023.03;5025252;28;20117;-74
2023/10/22 06:42:33;;;;;;;10.15;2.25;;;;;;;-146.27;85.53;83006.97;5013831;28;20033;-74
2023/10/22 06:44:59;;;;;;;4.93;2.10;;;;;;;-146.27;85.77;83010.97;5031348;28;20029;-74
2023/10/22 06:47:24;;;;;;;8.05;2.22;;;;;;;-146.27;86.13;83021.03;5041567;28;20373;-74
2023/10/22 06:49:50;;;;;;;3.60;2.17;;;;;;;-146.27;86.18;82998.94;5027135;28;20476;-74
2023/10/22 06:52:15;;;;;;;6.50;2.67;;;;;;;-146.27;85.86;83035.09;5020894;28;20044;-74
2023/10/22 06:54:40;;;;;;;5.15;2.00;;;;;;;-146.27;86.11;83035.09;5011619;28;20040;-73
2023/10/22 06:57:06;;;;;;;3.20;2.10;;;;;;;-146.27;86.32;83065.22;5029808;28;20025;-74
2023/10/22 06:59:31;;;;;;;9.35;2.25;;;;;;;-146.27;86.31;83047.16;5022951;28;20155;-73
2023/10/22 07:01:56;;;;;;;7.00;2.10;;;;;;;-146.27;86.24;83047.16;5027151;28;20025;-74
2023/10/22 07:04:22;;;;;;;6.55;2.08;;;;;;;-146.27;86.52;83021.03;5033448;28;20048;-74
2023/10/22 07:06:47;;;;;;;5.03;2.03;;;;;;;-146.27;86.22;83029.06;5026649;28;20026;-75
2023/10/22 07:09:13;;;;;;;9.48;2.00;;;;;;;-146.27;86.14;83000.94;5032737;28;20021;-74
2023/10/22 07:11:38;;;;;;;6.32;2.30;;;;;;;-146.27;85.97;83041.13;5025828;28;20121;-73
2023/10/22 07:14:04;;;;;;;7.70;2.28;;;;;;;-146.27;85.74;83010.97;5040981;28;20048;-76
2023/10/22 07:16:30;;;;;;;2.88;2.22;;;;;;;-146.27;85.88;82974.81;5026074;28;20520;-74
2023/10/22 07:18:56;;;;;;;3.95;1.90;;;;;;;-146.27;85.75;82962.75;5036313;28;20057;-72
2023/10/22 07:21:21;;;;;;;3.83;2.10;;;;;;;-146.27;86.36;83051.16;5021001;28;20532;-72
2023/10/22 07:23:47;;;;;;;6.90;2.67;;;;;;;-146.27;86.49;83033.09;5031437;28;20116;-75
2023/10/22 07:26:12;;;;;;;7.43;2.95;;;;;;;-146.27;86.72;83059.19;5026761;28;20057;-75
2023/10/22 07:28:41;;;;;;;7.45;2.85;;;;;;;-146.27;86.75;83019.03;5014243;28;20520;-75
2023/10/22 07:31:07;;;;;;;12.13;3.00;;;;;;;-146.27;86.32;82990.88;5021594;28;20030;-76
2023/10/22 07:33:32;;;;;;;5.70;2.63;;;;;;;-146.27;86.08;82998.94;5030194;28;20371;-70
2023/10/22 07:36:05;;;;;;;7.07;2.30;;;;;;;-146.27;85.83;83015.00;5031172;28;20488;-71
2023/10/22 07:38:33;;;;;;;8.35;2.60;;;;;;;-146.27;85.40;82980.84;5033434;28;20557;-71
2023/10/22 07:40:59;;;;;;;7.75;2.38;;;;;;;-146.27;84.93;82890.44;5031024;28;20029;-70
2023/10/22 07:43:26;;;;;;;4.57;2.50;;;;;;;-146.27;85.19;82958.75;5034022;28;20439;-70
2023/10/22 07:45:52;;;;;;;9.02;2.45;;;;;;;-146.27;84.52;82926.59;5038900;28;20021;-69
2023/10/22 07:48:18;;;;;;;7.78;2.13;;;;;;;-146.27;84.56;82994.91;5046306;28;20025;-76
2023/10/22 07:50:43;;;;;;;8.50;2.22;;;;;;;-146.27;84.16;82996.91;5038084;28;20065;-74
2023/10/22 07:53:08;;;;;;;8.43;3.50;;;;;;;-146.27;83.75;82962.75;5046219;28;20028;-74
2023/10/22 07:55:34;;;;;;;6.50;2.60;;;;;;;-146.27;84.04;82952.72;5035149;28;20029;-74
2023/10/22 07:58:00;;;;;;;6.28;2.20;;;;;;;-146.27;83.77;82970.81;5018702;28;20030;-76
2023/10/22 08:00:25;;;;;;;5.97;2.30;;;;;;;-146.27;83.77;82940.66;5032548;28;20059;-76
2023/10/22 08:02:51;;;;;;;8.98;3.72;;;;;;;-146.27;83.18;82916.56;5046965;28;20025;-76
2023/10/22 08:05:18;;;;;;;8.70;2.90;;;;;;;-146.27;83.19;82900.47;5029177;28;20033;-77
2023/10/22 08:07:43;;;;;;;6.90;2.30;;;;;;;-146.27;83.44;82888.44;5040188;28;20025;-77
2023/10/22 08:10:09;;;;;;;7.07;2.92;;;;;;;-146.27;83.61;82864.31;5035784;28;20119;-76
2023/10/22 08:12:35;;;;;;;9.95;2.50;;;;;;;-146.27;83.69;82898.47;5029773;28;20071;-73
2023/10/22 08:15:00;;;;;;;9.75;2.95;;;;;;;-146.27;83.61;82882.41;5028889;28;20466;-77
2023/10/22 08:17:25;;;;;;;6.28;2.72;;;;;;;-146.27;83.25;82890.44;5039121;28;20096;-76
2023/10/22 08:19:51;;;;;;;5.28;2.90;;;;;;;-146.27;83.53;82922.59;5041982;28;20469;-77
2023/10/22 08:22:16;;;;;;;6.32;2.60;;;;;;;-146.27;83.24;82892.44;5028595;28;20041;-77
2023/10/22 08:24:49;;;;;;;7.07;2.83;;;;;;;-146.27;83.64;82900.47;5031118;28;20412;-78
2023/10/22 08:27:15;;;;;;;8.95;2.60;;;;;;;-146.27;83.25;82874.38;5024563;28;20125;-76
2023/10/22 08:29:40;;;;;;;6.55;2.20;;;;;;;-146.27;83.36;82912.53;5021274;28;20029;-75
2023/10/22 08:32:06;;;;;;;4.57;2.30;;;;;;;-146.27;83.53;82898.47;5026868;28;20030;-78
2023/10/22 08:34:34;;;;;;;7.95;2.13;;;;;;;-146.27;84.01;82964.78;5034839;28;20035;-77
2023/10/22 08:36:59;;;;;;;5.13;2.03;;;;;;;-146.27;83.86;82962.75;5019142;28;20033;-78
2023/10/22 08:39:26;;;;;;;6.07;2.05;;;;;;;-146.27;83.75;82948.69;5017847;28;20576;-77
2023/10/22 08:42:01;;;;;;;3.78;1.80;;;;;;;-146.27;83.01;82936.66;5037710;28;20116;-77
2023/10/22 08:44:28;;;;;;;5.72;1.95;;;;;;;-146.27;82.79;82864.31;5046384;28;20056;-78
2023/10/22 08:46:54;;;;;;;7.47;2.03;;;;;;;-146.27;82.97;82870.34;5043123;28;20045;-78
2023/10/22 08:49:21;;;;;;;4.93;2.08;;;;;;;-146.27;82.28;82820.13;5037437;28;20067;-74
2023/10/22 08:51:47;;;;;;;7.18;2.22;;;;;;;-146.27;82.36;82838.19;5030309;28;20478;-75
2023/10/22 08:54:12;;;;;;;6.97;3.65;;;;;;;-146.27;82.38;82814.09;5035092;28;20025;-75
2023/10/22 08:56:38;;;;;;;9.00;2.20;;;;;;;-146.27;82.29;82806.06;5036438;28;20018;-74
2023/10/22 08:59:04;;;;;;;5.22;2.00;;;;;;;-146.27;81.84;82798.03;5034510;28;20032;-75
2023/10/22 09:01:29;;;;;;;6.80;1.58;;;;;;;-146.27;81.54;82777.94;5037053;28;20029;-75
2023/10/22 09:03:55;;;;;;;5.45;1.95;;;;;;;-146.27;81.30;82781.94;5033966;28;20170;-75
2023/10/22 09:06:22;;;;;;;4.13;1.35;;;;;;;-146.27;81.44;82789.97;5023015;28;20052;-73
2023/10/22 09:08:47;;;;;;;8.75;2.35;;;;;;;-146.27;81.68;82806.06;5017154;28;20395;-71
2023/10/22 09:11:12;;;;;;;2.90;1.70;;;;;;;-146.27;81.74;82858.28;5024800;28;20049;-71
2023/10/22 09:13:38;;;;;;;6.78;2.17;;;;;;;-146.27;82.27;82854.28;5030264;28;20112;-70
2023/10/22 09:16:03;;;;;;;6.88;1.73;;;;;;;-146.27;82.42;82858.28;5026764;28;20072;-71
2023/10/22 09:18:30;;;;;;;7.88;2.20;;;;;;;-146.27;83.33;82910.53;5010780;28;20046;-71
2023/10/22 09:21:06;;;;;;;5.90;1.80;;;;;;;-146.27;82.98;82866.31;5027742;28;20083;-70
2023/10/22 09:23:31;;;;;;;5.53;1.83;;;;;;;-146.27;82.33;82798.03;5029264;28;20021;-70
2023/10/22 09:25:57;;;;;;;5.05;2.00;;;;;;;-146.27;82.07;82761.84;5030350;28;20145;-70
2023/10/22 09:28:24;;;;;;;4.78;1.77;;;;;;;-146.27;81.73;82773.91;5013392;28;20018;-70
2023/10/22 09:30:57;;;;;;;5.82;2.17;;;;;;;-146.27;82.32;82816.09;5011067;28;20105;-70
2023/10/22 09:33:35;;;;;;;;;;;;;;;-146.27;82.33;82794.00;5024436;28;20030;-70
2023/10/22 09:36:02;;;;;;;2.15;1.58;;;;;;;-146.27;82.20;82810.06;5016006;28;19913;-69
2023/10/22 09:38:56;;;;;;;3.70;1.60;;;;;;;-146.27;81.48;82753.81;5016294;28;20056;-71
2023/10/22 09:41:27;;;;;;;3.38;1.92;;;;;;;-146.27;81.88;82792.00;5029979;28;20049;-71
2023/10/22 09:43:53;;;;;;;3.25;1.48;;;;;;;-146.27;81.44;82699.59;5029895;28;20397;-70
2023/10/22 09:46:19;;;;;;;4.07;1.42;;;;;;;-146.27;81.40;82749.81;5013792;28;20045;-70
2023/10/22 09:48:47;;;;;;;9.32;2.05;;;;;;;-146.27;81.29;82661.41;5019266;28;20065;-69
2023/10/22 09:51:14;;;;;;;3.65;1.77;;;;;;;-146.27;80.92;82677.47;5010153;28;20057;-69
2023/10/22 09:53:45;;;;;;;3.78;1.58;;;;;;;-146.27;80.30;82685.50;5017216;28;20049;-70
2023/10/22 09:56:14;;;;;;;3.78;1.10;;;;;;;-146.27;78.41;82645.34;5022294;28;20083;-70
2023/10/22 09:58:43;;;;;;;6.63;1.70;;;;;;;-146.27;77.55;82633.28;5029884;28;20021;-71
2023/10/22 10:01:10;;;;;;;4.35;1.20;;;;;;;-146.27;76.69;82544.91;5028634;28;20033;-71
2023/10/22 10:03:37;;;;;;;6.82;1.40;;;;;;;-146.27;76.82;82428.38;5032050;28;20025;-72
2023/10/22 10:06:07;;;;;;;1.23;1.00;;;;;;;-146.27;75.38;82496.69;5014958;28;20033;-71
2023/10/22 10:08:36;;;;;;;3.95;1.23;;;;;;;-146.27;74.14;82454.50;5023876;28;20029;-72
2023/10/22 10:11:02;;;;;;;4.97;1.13;;;;;;;-146.27;73.55;82396.25;5026651;28;20371;-71
2023/10/22 10:13:28;;;;;;;1.95;0.80;;;;;;;-146.27;73.09;82516.78;5024189;28;20117;-71
2023/10/22 10:16:01;;;;;;;1.48;1.02;;;;;;;-146.27;72.63;82317.91;5027571;28;20589;-70
2023/10/22 10:18:45;;;;;;;;;;;;;;;-146.27;72.63;82327.94;5021580;28;20033;-73
2023/10/22 10:21:45;;;;;;;3.70;1.10;;;;;;;-146.27;72.54;82311.88;5017111;28;19968;-73
2023/10/22 10:24:30;;;;;;;7.32;1.30;;;;;;;-146.27;72.02;82295.81;5014090;28;20033;-73
2023/10/22 10:26:56;;;;;;;3.10;1.48;;;;;;;-146.27;72.10;82289.78;5015994;28;20105;-72
2023/10/22 10:29:23;;;;;;;4.75;1.25;;;;;;;-146.27;71.75;82233.53;5013546;28;20113;-73
2023/10/22 10:31:52;;;;;;;8.35;2.30;;;;;;;-146.27;71.39;82199.38;5013891;28;20030;-73
2023/10/22 10:34:36;;;;;;;2.72;1.35;;;;;;;-146.27;70.73;82070.81;5016270;28;20041;-74
2023/10/22 10:37:11;;;;;;;3.67;1.02;;;;;;;-146.27;68.72;82018.59;5029204;28;20389;-73
2023/10/22 10:39:38;;;;;;;3.00;1.08;;;;;;;-146.27;67.34;81896.06;5022159;28;20125;-73
2023/10/22 10:42:04;;;;;;;9.00;1.33;;;;;;;-146.27;65.26;81865.94;5031671;28;20029;-73
2023/10/22 10:44:30;;;;;;;8.02;1.10;;;;;;;-146.27;62.99;81789.63;5032842;28;20688;-73
2023/10/22 10:47:21;;;;;;;1.52;0.93;;;;;;;-146.27;64.26;81922.19;5028908;28;20028;-72
2023/10/22 10:50:06;;;;;;;4.68;1.25;;;;;;;-146.27;65.93;81958.34;5027123;28;20040;-72
2023/10/22 10:52:58;;;;;;;3.38;0.90;;;;;;;-146.27;67.47;82199.38;5034376;28;20033;-72
2023/10/22 10:55:27;;;;;;;2.83;1.08;;;;;;;-146.27;67.48;82185.31;5021200;28;20088;-73
2023/10/22 10:57:53;;;;;;;3.05;1.33;;;;;;;-146.27;68.31;82331.97;5031447;28;20067;-72
2023/10/22 11:00:20;;;;;;;4.00;1.20;;;;;;;-146.27;68.40;82259.66;5050551;28;20033;-72
2023/10/22 11:02:49;;;;;;;1.85;1.00;;;;;;;-146.27;69.44;82323.91;5034813;28;20060;-77
2023/10/22 11:05:16;;;;;;;5.30;1.40;;;;;;;-146.27;70.05;82358.06;5031979;28;20048;-78
2023/10/22 11:07:45;;;;;;;2.05;0.90;;;;;;;-146.27;69.57;82374.13;5034654;28;20481;-77
2023/10/22 11:10:16;;;;;;;4.03;1.00;;;;;;;-146.27;69.60;82390.22;5023708;28;20112;-79
2023/10/22 11:12:43;;;;;;;3.13;1.15;;;;;;;-146.27;70.54;82311.88;5032685;28;20025;-79
2023/10/22 11:15:10;;;;;;;5.97;1.38;;;;;;;-146.27;71.54;82281.75;5028987;28;20084;-77